createdAt,value
2018-07-28T00:01:32.071Z,7.47
2018-07-28T00:04:00.481Z,10.33
2018-07-28T00:06:28.939Z,5.57
2018-07-28T00:08:57.340Z,4.70
2018-07-28T00:11:25.819Z,4.53
2018-07-28T00:13:54.279Z,6.30
2018-07-28T00:16:22.778Z,4.43
2018-07-28T00:18:52.059Z,9.80
2018-07-28T00:21:20.487Z,5.63
2018-07-28T00:23:48.941Z,4.43
2018-07-28T00:26:17.732Z,6.93
2018-07-28T00:28:47.423Z,5.37
2018-07-28T00:31:15.865Z,5.23
2018-07-28T00:33:44.472Z,4.40
2018-07-28T00:36:12.971Z,6.03
2018-07-28T00:38:41.439Z,5.43
2018-07-28T00:41:09.935Z,6.60
2018-07-28T00:43:38.385Z,5.53
2018-07-28T00:46:06.789Z,4.27
2018-07-28T00:48:35.386Z,4.13
2018-07-28T00:51:03.839Z,4.53
2018-07-28T00:53:32.339Z,4.27
2018-07-28T00:56:00.786Z,4.90
2018-07-28T00:58:29.268Z,5.23
2018-07-28T01:00:57.680Z,5.40
2018-07-28T01:03:26.134Z,6.57
2018-07-28T01:05:54.745Z,7.13
2018-07-28T01:08:23.160Z,5.77
2018-07-28T01:10:51.620Z,6.20
2018-07-28T01:13:20.082Z,8.13
2018-07-28T01:15:48.424Z,5.50
2018-07-28T01:18:17.311Z,10.53
2018-07-28T01:20:45.736Z,5.70
2018-07-28T01:23:14.129Z,7.70
2018-07-28T01:25:42.676Z,6.00
2018-07-28T01:28:11.146Z,5.07
2018-07-28T01:30:39.587Z,7.47
2018-07-28T01:33:08.037Z,6.03
2018-07-28T01:35:36.474Z,5.80
2018-07-28T01:38:05.290Z,6.10
2018-07-28T01:40:33.884Z,6.80
2018-07-28T01:43:02.798Z,7.20
2018-07-28T01:45:31.277Z,11.57
2018-07-28T01:47:59.808Z,5.87
2018-07-28T01:50:28.499Z,6.23
2018-07-28T01:52:56.940Z,6.17
2018-07-28T01:55:25.451Z,7.50
2018-07-28T01:57:53.893Z,8.57
2018-07-28T02:00:22.457Z,7.10
2018-07-28T02:02:50.996Z,9.37
2018-07-28T02:05:19.395Z,6.60
2018-07-28T02:07:47.909Z,9.00
2018-07-28T02:10:16.420Z,9.13
2018-07-28T02:12:44.900Z,10.07
2018-07-28T02:15:13.301Z,9.77
2018-07-28T02:17:41.829Z,13.97
2018-07-28T02:20:10.353Z,7.30
2018-07-28T02:22:38.890Z,7.67
2018-07-28T02:25:08.882Z,10.73
2018-07-28T02:27:37.495Z,10.20
2018-07-28T02:30:06.651Z,10.73
2018-07-28T02:32:35.578Z,9.73
2018-07-28T02:35:04.749Z,10.73
2018-07-28T02:37:33.273Z,10.40
2018-07-28T02:40:01.782Z,9.47
2018-07-28T02:42:30.171Z,8.53
2018-07-28T02:44:58.567Z,10.60
2018-07-28T02:47:27.050Z,9.67
2018-07-28T02:49:55.678Z,8.80
2018-07-28T02:52:24.324Z,11.03
2018-07-28T02:54:52.986Z,11.73
2018-07-28T02:57:21.473Z,10.57
2018-07-28T02:59:49.936Z,9.03
2018-07-28T03:02:18.433Z,13.23
2018-07-28T03:04:46.888Z,11.53
2018-07-28T03:07:15.290Z,13.93
2018-07-28T03:09:43.834Z,15.97
2018-07-28T03:12:12.286Z,10.43
2018-07-28T03:14:40.830Z,10.50
2018-07-28T03:17:09.983Z,10.40
2018-07-28T03:19:38.609Z,10.47
2018-07-28T03:22:07.464Z,10.20
2018-07-28T03:24:36.200Z,10.10
2018-07-28T03:27:05.089Z,15.33
2018-07-28T03:29:36.626Z,13.73
2018-07-28T03:32:05.128Z,12.40
2018-07-28T03:34:33.608Z,10.80
2018-07-28T03:37:02.174Z,9.37
2018-07-28T03:39:31.341Z,11.60
2018-07-28T03:42:00.045Z,12.33
2018-07-28T03:44:28.507Z,9.00
2018-07-28T03:46:57.000Z,11.37
2018-07-28T03:49:25.450Z,10.67
2018-07-28T03:51:53.871Z,10.97
2018-07-28T03:54:22.323Z,9.73
2018-07-28T03:56:50.726Z,10.70
2018-07-28T03:59:19.174Z,12.27
2018-07-28T04:01:47.594Z,11.77
2018-07-28T04:04:16.075Z,10.50
2018-07-28T04:06:44.463Z,14.93
2018-07-28T04:09:12.987Z,14.50
2018-07-28T04:11:41.444Z,12.67
2018-07-28T04:14:09.814Z,11.30
2018-07-28T04:16:38.623Z,14.03
2018-07-28T04:19:07.710Z,14.50
2018-07-28T04:21:36.115Z,12.77
2018-07-28T04:24:04.762Z,13.33
2018-07-28T04:26:33.399Z,17.37
2018-07-28T04:29:02.912Z,14.63
2018-07-28T04:31:31.644Z,12.53
2018-07-28T04:34:00.367Z,12.83
2018-07-28T04:36:28.836Z,13.07
2018-07-28T04:38:57.228Z,16.00
2018-07-28T04:41:25.840Z,13.63
2018-07-28T04:43:54.307Z,13.30
2018-07-28T04:46:23.627Z,13.43
2018-07-28T04:48:52.585Z,16.00
2018-07-28T04:51:21.584Z,15.83
2018-07-28T04:53:49.997Z,13.30
2018-07-28T04:56:18.773Z,12.97
2018-07-28T04:58:47.985Z,13.10
2018-07-28T05:01:16.476Z,12.73
2018-07-28T05:03:44.959Z,11.83
2018-07-28T05:06:13.534Z,12.83
2018-07-28T05:08:42.615Z,11.53
2018-07-28T05:11:11.980Z,11.47
2018-07-28T05:13:40.543Z,12.63
2018-07-28T05:16:08.992Z,12.70
2018-07-28T05:18:37.376Z,12.17
2018-07-28T05:21:07.419Z,12.07
2018-07-28T05:23:40.060Z,10.83
2018-07-28T05:26:09.071Z,12.03
2018-07-28T05:28:37.889Z,15.87
2018-07-28T05:31:06.805Z,11.23
2018-07-28T05:33:35.606Z,10.77
2018-07-28T05:36:04.300Z,11.17
2018-07-28T05:38:34.702Z,10.27
2018-07-28T05:41:03.418Z,11.00
2018-07-28T05:43:37.502Z,12.87
2018-07-28T05:46:09.698Z,10.97
2018-07-28T05:48:38.948Z,9.57
2018-07-28T05:51:07.406Z,10.40
2018-07-28T05:53:39.512Z,10.90
2018-07-28T05:56:12.040Z,11.27
2018-07-28T05:58:42.654Z,10.10
2018-07-28T06:01:11.132Z,11.80
2018-07-28T06:03:40.379Z,10.63
2018-07-28T06:06:10.606Z,10.93
2018-07-28T06:08:41.631Z,10.78
2018-07-28T06:11:14.431Z,10.25
2018-07-28T06:13:45.240Z,11.70
2018-07-28T06:16:15.900Z,13.43
2018-07-28T06:18:44.959Z,9.83
2018-07-28T06:21:13.414Z,9.45
2018-07-28T06:23:42.235Z,11.43
2018-07-28T06:26:15.528Z,11.10
2018-07-28T06:28:47.707Z,12.28
2018-07-28T06:31:17.517Z,9.93
2018-07-28T06:33:47.236Z,11.80
2018-07-28T06:36:15.871Z,10.35
2018-07-28T06:38:45.810Z,10.50
2018-07-28T06:41:14.228Z,11.78
2018-07-28T06:43:42.824Z,10.50
2018-07-28T06:46:11.969Z,12.88
2018-07-28T06:48:40.458Z,11.18
2018-07-28T06:51:08.860Z,9.33
2018-07-28T06:53:37.382Z,9.53
2018-07-28T06:56:05.896Z,9.60
2018-07-28T06:58:34.415Z,8.48
2018-07-28T07:01:02.761Z,11.50
2018-07-28T07:03:31.232Z,9.25
2018-07-28T07:05:59.798Z,8.95
2018-07-28T07:08:28.129Z,11.90
2018-07-28T07:10:56.600Z,8.58
2018-07-28T07:13:25.272Z,9.15
2018-07-28T07:15:53.781Z,8.30
2018-07-28T07:18:22.255Z,7.67
2018-07-28T07:20:50.724Z,8.95
2018-07-28T07:23:19.183Z,11.78
2018-07-28T07:25:47.656Z,10.45
2018-07-28T07:28:16.059Z,8.50
2018-07-28T07:30:44.569Z,9.80
2018-07-28T07:33:13.564Z,8.98
2018-07-28T07:35:42.075Z,7.37
2018-07-28T07:38:10.521Z,6.42
2018-07-28T07:40:39.341Z,8.88
2018-07-28T07:43:07.994Z,6.85
2018-07-28T07:45:36.588Z,8.03
2018-07-28T07:48:05.276Z,9.20
2018-07-28T07:50:33.793Z,7.72
2018-07-28T07:53:02.309Z,8.65
2018-07-28T07:55:30.759Z,7.85
2018-07-28T07:57:59.266Z,8.83
2018-07-28T08:00:27.716Z,8.30
2018-07-28T08:02:56.647Z,8.03
2018-07-28T08:05:26.418Z,11.08
2018-07-28T08:07:55.363Z,9.55
2018-07-28T08:10:24.847Z,8.03
2018-07-28T08:12:53.327Z,7.12
2018-07-28T08:15:22.168Z,8.85
2018-07-28T08:17:50.797Z,9.35
2018-07-28T08:20:19.748Z,8.65
2018-07-28T08:22:48.103Z,7.95
2018-07-28T08:25:16.731Z,7.17
2018-07-28T08:27:45.490Z,10.82
2018-07-28T08:30:13.902Z,9.13
2018-07-28T08:32:42.455Z,9.43
2018-07-28T08:38:03.596Z,8.88
2018-07-28T08:40:32.151Z,10.28
2018-07-28T08:43:00.543Z,8.40
2018-07-28T08:45:29.128Z,8.85
2018-07-28T08:47:57.630Z,11.00
2018-07-28T08:50:26.091Z,11.95
2018-07-28T08:52:55.680Z,9.53
2018-07-28T08:55:24.090Z,16.60
2018-07-28T08:57:52.749Z,8.38
2018-07-28T09:00:21.429Z,7.45
2018-07-28T09:02:49.977Z,12.23
2018-07-28T09:05:18.407Z,10.98
2018-07-28T09:07:46.865Z,8.68
2018-07-28T09:10:15.287Z,8.85
2018-07-28T09:12:43.830Z,10.03
2018-07-28T09:15:12.680Z,11.78
2018-07-28T09:17:41.816Z,9.93
2018-07-28T09:20:10.328Z,12.33
2018-07-28T09:22:39.350Z,8.60
2018-07-28T09:25:08.319Z,8.85
2018-07-28T09:27:37.122Z,12.82
2018-07-28T09:30:06.527Z,8.10
2018-07-28T09:32:35.084Z,13.50
2018-07-28T09:35:03.626Z,11.95
2018-07-28T09:37:32.024Z,11.75
2018-07-28T09:40:00.528Z,9.25
2018-07-28T09:42:28.938Z,6.97
2018-07-28T09:44:57.374Z,9.90
2018-07-28T09:47:25.881Z,14.00
2018-07-28T09:49:54.503Z,9.13
2018-07-28T09:52:23.308Z,9.35
2018-07-28T09:54:51.816Z,13.55
2018-07-28T09:57:20.475Z,8.63
2018-07-28T09:59:49.241Z,9.48
2018-07-28T10:02:19.028Z,11.97
2018-07-28T10:04:47.438Z,8.30
2018-07-28T10:07:15.823Z,7.80
2018-07-28T10:09:44.267Z,6.80
2018-07-28T10:12:13.062Z,9.53
2018-07-28T10:14:41.507Z,7.35
2018-07-28T10:17:09.870Z,9.95
2018-07-28T10:19:38.452Z,7.85
2018-07-28T10:22:07.082Z,13.83
2018-07-28T10:24:35.786Z,6.72
2018-07-28T10:27:04.453Z,6.97
2018-07-28T10:29:32.859Z,14.25
2018-07-28T10:32:01.314Z,7.25
2018-07-28T10:34:29.861Z,9.75
2018-07-28T10:36:58.237Z,12.98
2018-07-28T10:39:26.746Z,9.70
2018-07-28T10:41:55.490Z,9.25
2018-07-28T10:44:23.844Z,9.73
2018-07-28T10:46:52.420Z,12.07
2018-07-28T10:49:20.932Z,7.58
2018-07-28T10:51:49.481Z,9.53
2018-07-28T10:54:18.126Z,8.90
2018-07-28T10:56:46.816Z,8.20
2018-07-28T10:59:15.671Z,6.53
2018-07-28T11:01:44.304Z,7.42
2018-07-28T11:04:12.869Z,7.00
2018-07-28T11:06:41.423Z,7.83
2018-07-28T11:09:10.598Z,7.60
2018-07-28T11:11:39.600Z,8.80
2018-07-28T11:14:08.509Z,7.60
2018-07-28T11:16:37.300Z,14.30
2018-07-28T11:19:05.909Z,11.35
2018-07-28T11:21:34.647Z,7.62
2018-07-28T11:24:03.538Z,10.23
2018-07-28T11:26:32.040Z,6.50
2018-07-28T11:29:02.077Z,7.50
2018-07-28T11:31:41.774Z,9.93
2018-07-28T11:34:21.734Z,7.87
2018-07-28T11:37:01.354Z,11.45
2018-07-28T11:39:41.010Z,6.47
2018-07-28T11:42:20.629Z,8.18
2018-07-28T11:45:09.505Z,6.67
2018-07-28T11:47:38.064Z,7.30
2018-07-28T11:50:06.728Z,8.45
2018-07-28T11:52:35.679Z,12.07
2018-07-28T11:55:04.603Z,10.15
2018-07-28T11:57:33.123Z,7.15
2018-07-28T12:00:01.566Z,8.53
2018-07-28T12:02:30.300Z,9.38
2018-07-28T12:04:58.766Z,7.92
2018-07-28T12:07:27.352Z,9.20
2018-07-28T12:09:56.222Z,10.55
2018-07-28T12:12:24.743Z,5.70
2018-07-28T12:14:53.222Z,8.90
2018-07-28T12:17:21.750Z,6.50
2018-07-28T12:19:50.288Z,11.63
2018-07-28T12:22:18.957Z,9.28
2018-07-28T12:24:47.490Z,7.30
2018-07-28T12:27:15.965Z,6.08
2018-07-28T12:29:44.512Z,7.28
2018-07-28T12:32:12.972Z,7.70
2018-07-28T12:34:41.519Z,8.33
2018-07-28T12:37:09.907Z,7.47
2018-07-28T12:39:38.349Z,7.22
2018-07-28T12:42:06.865Z,13.30
2018-07-28T12:44:35.380Z,5.40
2018-07-28T12:47:03.887Z,13.75
2018-07-28T12:49:32.514Z,15.15
2018-07-28T12:52:01.555Z,13.38
2018-07-28T12:54:30.244Z,17.12
2018-07-28T12:56:58.827Z,17.48
2018-07-28T12:59:27.380Z,26.93
2018-07-28T13:01:55.927Z,34.48
2018-07-28T13:04:24.981Z,21.20
2018-07-28T13:06:53.471Z,17.33
2018-07-28T13:09:22.400Z,12.47
2018-07-28T13:11:51.482Z,15.83
2018-07-28T13:14:20.972Z,16.73
2018-07-28T13:16:49.670Z,17.10
2018-07-28T13:19:18.302Z,14.47
2018-07-28T13:21:46.835Z,17.93
2018-07-28T13:24:18.475Z,19.27
2018-07-28T13:26:48.155Z,14.43
2018-07-28T13:29:17.577Z,15.70
2018-07-28T13:31:46.283Z,14.53
2018-07-28T13:34:15.058Z,18.40
2018-07-28T13:36:44.207Z,16.23
2018-07-28T13:39:12.979Z,19.63
2018-07-28T13:41:41.643Z,18.30
2018-07-28T13:44:10.285Z,21.70
2018-07-28T13:46:38.949Z,20.23
2018-07-28T13:49:07.891Z,19.10
2018-07-28T13:51:36.531Z,17.47
2018-07-28T13:54:04.932Z,19.13
2018-07-28T13:56:34.234Z,17.73
2018-07-28T13:59:02.877Z,18.63
2018-07-28T14:01:31.335Z,16.93
2018-07-28T14:03:59.852Z,19.03
2018-07-28T14:06:28.325Z,18.17
2018-07-28T14:08:56.720Z,15.00
2018-07-28T14:11:25.195Z,17.33
2018-07-28T14:13:53.791Z,19.63
2018-07-28T14:16:22.307Z,19.47
2018-07-28T14:18:50.824Z,18.43
2018-07-28T14:21:19.435Z,17.73
2018-07-28T14:23:47.963Z,20.33
2018-07-28T14:26:16.356Z,18.63
2018-07-28T14:28:44.787Z,19.40
2018-07-28T14:31:13.212Z,19.37
2018-07-28T14:33:41.607Z,21.60
2018-07-28T14:36:10.045Z,17.07
2018-07-28T14:38:38.576Z,16.07
2018-07-28T14:41:07.303Z,19.03
2018-07-28T14:43:35.807Z,17.07
2018-07-28T14:46:04.341Z,23.07
2018-07-28T14:48:32.813Z,15.47
2018-07-28T14:51:01.275Z,13.00
2018-07-28T14:53:29.748Z,10.50
2018-07-28T14:55:58.231Z,10.17
2018-07-28T14:58:26.714Z,9.40
2018-07-28T15:00:55.550Z,9.50
2018-07-28T15:03:24.150Z,11.00
2018-07-28T15:05:52.750Z,8.43
2018-07-28T15:08:21.255Z,9.83
2018-07-28T15:10:49.633Z,8.37
2018-07-28T15:13:19.373Z,7.93
2018-07-28T15:15:47.992Z,9.73
2018-07-28T15:18:17.093Z,7.10
2018-07-28T15:20:46.337Z,7.20
2018-07-28T15:23:15.031Z,7.53
2018-07-28T15:25:43.548Z,10.23
2018-07-28T15:28:12.493Z,11.73
2018-07-28T15:30:40.916Z,9.13
2018-07-28T15:33:09.510Z,6.25
2018-07-28T15:35:38.662Z,7.00
2018-07-28T15:38:07.232Z,9.05
2018-07-28T15:40:35.889Z,9.40
2018-07-28T15:43:04.716Z,7.42
2018-07-28T15:45:33.226Z,11.25
2018-07-28T15:48:01.810Z,7.08
2018-07-28T15:50:30.368Z,10.80
2018-07-28T15:52:58.747Z,8.13
2018-07-28T15:55:27.194Z,7.93
2018-07-28T15:57:55.641Z,13.95
2018-07-28T16:00:24.012Z,8.15
2018-07-28T16:02:52.434Z,8.78
2018-07-28T16:05:20.843Z,9.83
2018-07-28T16:07:50.241Z,10.55
2018-07-28T16:10:18.768Z,9.75
2018-07-28T16:12:47.242Z,7.95
2018-07-28T16:15:15.620Z,10.32
2018-07-28T16:17:44.023Z,8.33
2018-07-28T16:20:12.554Z,9.33
2018-07-28T16:22:40.865Z,13.10
2018-07-28T16:25:09.240Z,13.83
2018-07-28T16:27:37.877Z,9.33
2018-07-28T16:30:07.751Z,10.45
2018-07-28T16:32:36.109Z,10.23
2018-07-28T16:35:04.671Z,10.78
2018-07-28T16:37:33.093Z,10.63
2018-07-28T16:40:02.138Z,9.98
2018-07-28T16:42:30.503Z,11.70
2018-07-28T16:44:59.603Z,11.50
2018-07-28T16:47:28.323Z,10.50
2018-07-28T16:49:56.749Z,10.43
2018-07-28T16:52:25.183Z,13.83
2018-07-28T16:54:53.652Z,9.30
2018-07-28T16:57:22.396Z,12.47
2018-07-28T16:59:50.860Z,25.10
2018-07-28T17:02:19.388Z,12.43
2018-07-28T17:04:48.447Z,14.10
2018-07-28T17:07:16.979Z,12.35
2018-07-28T17:09:45.345Z,9.20
2018-07-28T17:12:13.890Z,11.70
2018-07-28T17:14:42.346Z,18.37
2018-07-28T17:17:10.869Z,11.30
2018-07-28T17:19:39.576Z,13.78
2018-07-28T17:22:08.606Z,15.08
2018-07-28T17:24:37.119Z,13.05
2018-07-28T17:27:05.882Z,11.83
2018-07-28T17:29:34.380Z,13.00
2018-07-28T17:32:02.969Z,13.00
2018-07-28T17:34:31.648Z,11.22
2018-07-28T17:37:00.081Z,13.85
2018-07-28T17:39:28.657Z,13.43
2018-07-28T17:41:57.065Z,13.72
2018-07-28T17:44:25.513Z,14.98
2018-07-28T17:46:54.162Z,13.75
2018-07-28T17:49:22.644Z,13.88
2018-07-28T17:51:51.040Z,13.43
2018-07-28T17:54:19.718Z,15.80
2018-07-28T17:56:48.185Z,11.10
2018-07-28T17:59:16.527Z,10.50
2018-07-28T18:01:44.879Z,13.43
2018-07-28T18:04:13.301Z,12.53
2018-07-28T18:06:41.767Z,11.97
2018-07-28T18:09:11.045Z,25.57
2018-07-28T18:11:39.508Z,22.35
2018-07-28T18:14:08.036Z,20.80
2018-07-28T18:16:36.581Z,31.52
2018-07-28T18:19:05.041Z,21.00
2018-07-28T18:21:33.507Z,22.52
2018-07-28T18:24:02.008Z,18.65
2018-07-28T18:26:37.480Z,17.02
2018-07-28T18:29:08.668Z,20.70
2018-07-28T18:31:37.378Z,19.05
2018-07-28T18:34:05.971Z,19.05
2018-07-28T18:36:34.873Z,17.67
2018-07-28T18:39:03.844Z,19.25
2018-07-28T18:41:32.512Z,20.05
2018-07-28T18:44:02.280Z,20.35
2018-07-28T18:46:30.836Z,17.30
2018-07-28T18:48:59.407Z,16.62
2018-07-28T18:51:27.824Z,16.75
2018-07-28T18:53:56.456Z,17.23
2018-07-28T18:56:25.030Z,15.78
2018-07-28T18:58:53.772Z,19.50
2018-07-28T19:01:22.362Z,13.03
2018-07-28T19:03:51.287Z,15.73
2018-07-28T19:06:20.310Z,10.60
2018-07-28T19:08:54.583Z,16.20
2018-07-28T19:11:23.255Z,16.83
2018-07-28T19:13:56.984Z,13.23
2018-07-28T19:16:25.539Z,15.17
2018-07-28T19:18:59.342Z,13.10
2018-07-28T19:21:28.216Z,11.77
2018-07-28T19:24:01.435Z,15.23
2018-07-28T19:26:30.720Z,14.50
2018-07-28T19:29:04.603Z,14.37
2018-07-28T19:31:33.660Z,12.87
2018-07-28T19:34:02.245Z,15.63
2018-07-28T19:36:36.270Z,15.17
2018-07-28T19:39:07.246Z,17.20
2018-07-28T19:41:41.034Z,12.50
2018-07-28T19:44:10.887Z,15.83
2018-07-28T19:46:39.527Z,14.93
2018-07-28T19:49:08.567Z,11.53
2018-07-28T19:51:37.156Z,13.80
2018-07-28T19:54:05.796Z,10.13
2018-07-28T19:56:34.505Z,9.63
2018-07-28T19:59:03.376Z,8.63
2018-07-28T20:01:32.012Z,8.30
2018-07-28T20:04:00.502Z,10.00
2018-07-28T20:06:29.212Z,4.80
2018-07-28T20:08:58.406Z,2.50
2018-07-28T20:11:26.865Z,3.00
2018-07-28T20:13:55.595Z,5.27
2018-07-28T20:16:24.237Z,10.67
2018-07-28T20:18:52.686Z,5.20
2018-07-28T20:21:21.460Z,3.70
2018-07-28T20:23:49.950Z,7.80
2018-07-28T20:26:18.617Z,7.53
2018-07-28T20:28:47.299Z,7.97
2018-07-28T20:31:15.858Z,10.23
2018-07-28T20:33:44.385Z,3.80
2018-07-28T20:36:13.608Z,7.17
2018-07-28T20:38:42.129Z,6.80
2018-07-28T20:41:10.662Z,6.10
2018-07-28T20:43:39.270Z,8.87
2018-07-28T20:46:07.819Z,7.10
2018-07-28T20:48:36.645Z,7.10
2018-07-28T20:51:05.187Z,4.73
2018-07-28T20:53:33.827Z,9.57
2018-07-28T20:56:06.176Z,8.30
2018-07-28T20:58:35.395Z,6.10
2018-07-28T21:01:04.956Z,6.47
2018-07-28T21:03:33.659Z,4.27
2018-07-28T21:06:02.268Z,9.17
2018-07-28T21:08:30.941Z,5.37
2018-07-28T21:10:59.932Z,6.07
2018-07-28T21:13:28.668Z,5.63
2018-07-28T21:15:57.366Z,10.47
2018-07-28T21:18:26.233Z,8.00
2018-07-28T21:20:54.836Z,9.20
2018-07-28T21:23:23.321Z,7.80
2018-07-28T21:25:51.854Z,8.27
2018-07-28T21:28:20.463Z,5.97
2018-07-28T21:30:49.647Z,8.80
2018-07-28T21:33:18.412Z,8.87
2018-07-28T21:35:47.368Z,10.47
2018-07-28T21:38:16.091Z,6.50
2018-07-28T21:40:44.955Z,6.40
2018-07-28T21:43:13.513Z,19.23
2018-07-28T21:45:42.354Z,10.03
2018-07-28T21:48:11.038Z,14.67
2018-07-28T21:50:41.416Z,6.87
2018-07-28T21:53:10.780Z,12.67
2018-07-28T21:55:39.746Z,9.53
2018-07-28T21:58:09.170Z,8.33
2018-07-28T22:00:43.197Z,7.40
2018-07-28T22:03:11.695Z,6.13
2018-07-28T22:05:40.209Z,10.23
2018-07-28T22:08:08.861Z,8.33
2018-07-28T22:10:37.350Z,7.90
2018-07-28T22:13:06.183Z,7.07
2018-07-28T22:15:35.395Z,8.47
2018-07-28T22:18:04.362Z,7.60
2018-07-28T22:20:32.801Z,6.00
2018-07-28T22:23:01.970Z,6.47
2018-07-28T22:25:30.348Z,8.33
2018-07-28T22:27:59.972Z,8.60
2018-07-28T22:30:29.677Z,10.03
2018-07-28T22:32:58.301Z,6.70
2018-07-28T22:35:26.821Z,9.63
2018-07-28T22:37:56.849Z,8.33
2018-07-28T22:40:25.987Z,8.13
2018-07-28T22:42:55.324Z,8.87
2018-07-28T22:45:23.973Z,10.10
2018-07-28T22:47:52.509Z,7.83
2018-07-28T22:50:21.111Z,8.30
2018-07-28T22:52:49.617Z,6.83
2018-07-28T22:55:18.179Z,10.50
2018-07-28T22:57:46.769Z,14.30
2018-07-28T23:00:15.298Z,9.43
2018-07-28T23:02:44.218Z,12.10
2018-07-28T23:05:12.928Z,12.00
2018-07-28T23:07:41.465Z,9.70
2018-07-28T23:10:10.120Z,12.53
2018-07-28T23:12:38.694Z,14.40
2018-07-28T23:15:07.212Z,13.87
2018-07-28T23:17:35.950Z,12.80
2018-07-28T23:20:05.270Z,14.73
2018-07-28T23:22:33.839Z,13.80
2018-07-28T23:25:03.603Z,15.20
2018-07-28T23:27:32.292Z,16.97
2018-07-28T23:30:00.802Z,16.80
2018-07-28T23:32:29.426Z,16.07
2018-07-28T23:34:59.274Z,17.13
2018-07-28T23:37:27.722Z,15.03
2018-07-28T23:39:56.139Z,19.23
2018-07-28T23:42:24.806Z,15.40
2018-07-28T23:44:53.425Z,17.87
2018-07-28T23:47:23.302Z,21.23
2018-07-28T23:49:52.143Z,22.43
2018-07-28T23:52:20.574Z,18.37
2018-07-28T23:54:49.163Z,15.47
2018-07-28T23:57:17.637Z,14.20
2018-07-28T23:59:46.331Z,16.83
